createdAt,value
2022-09-21T00:02:16.915Z,1.30
2022-09-21T00:04:50.963Z,1.00
2022-09-21T00:07:23.675Z,1.30
2022-09-21T00:09:56.301Z,1.50
2022-09-21T00:12:31.277Z,1.23
2022-09-21T00:15:04.007Z,1.20
2022-09-21T00:17:39.223Z,1.00
2022-09-21T00:20:11.880Z,1.25
2022-09-21T00:22:44.616Z,1.48
2022-09-21T00:25:18.174Z,1.20
2022-09-21T00:27:52.191Z,1.33
2022-09-21T00:30:24.874Z,1.30
2022-09-21T00:33:18.055Z,1.30
2022-09-21T00:38:38.933Z,1.50
2022-09-21T00:41:14.229Z,1.65
2022-09-21T00:43:51.013Z,1.38
2022-09-21T00:46:29.807Z,1.42
2022-09-21T00:49:02.947Z,1.50
2022-09-21T00:51:36.483Z,1.40
2022-09-21T00:54:15.435Z,1.38
2022-09-21T00:56:48.601Z,1.38
2022-09-21T00:59:28.064Z,1.30
2022-09-21T01:02:02.962Z,1.42
2022-09-21T01:07:14.135Z,1.67
2022-09-21T01:09:51.085Z,1.50
2022-09-21T01:12:36.526Z,1.40
2022-09-21T01:15:30.128Z,1.23
2022-09-21T01:21:04.044Z,1.30
2022-09-21T01:23:51.319Z,1.45
2022-09-21T01:26:34.518Z,1.40
2022-09-21T01:29:17.364Z,1.20
2022-09-21T01:31:54.295Z,1.23
2022-09-21T01:34:31.287Z,1.60
2022-09-21T01:37:08.880Z,1.20
2022-09-21T01:39:46.328Z,1.58
2022-09-21T01:42:22.783Z,1.35
2022-09-21T01:44:58.766Z,1.00
2022-09-21T01:47:32.042Z,1.27
2022-09-21T01:50:09.126Z,1.20
2022-09-21T01:52:48.492Z,0.90
2022-09-21T01:55:28.440Z,1.33
2022-09-21T01:58:07.185Z,1.25
2022-09-21T02:00:42.913Z,1.15
2022-09-21T02:03:20.900Z,1.38
2022-09-21T02:05:54.304Z,1.27
2022-09-21T02:08:27.795Z,1.00
2022-09-21T02:11:02.560Z,1.55
2022-09-21T02:13:39.437Z,1.10
2022-09-21T02:16:36.996Z,1.10
2022-09-21T02:19:18.377Z,1.10
2022-09-21T02:22:03.279Z,1.20
2022-09-21T02:24:41.425Z,1.20
2022-09-21T02:27:24.857Z,1.33
2022-09-21T02:30:03.819Z,1.40
2022-09-21T02:32:49.224Z,1.05
2022-09-21T02:35:32.094Z,1.50
2022-09-21T02:38:11.971Z,0.98
2022-09-21T02:40:53.795Z,1.10
2022-09-21T02:43:29.229Z,1.75
2022-09-21T02:46:06.438Z,1.10
2022-09-21T02:48:46.965Z,1.10
2022-09-21T02:51:24.365Z,0.73
2022-09-21T02:53:59.896Z,1.05
2022-09-21T02:56:33.586Z,1.10
2022-09-21T02:59:07.947Z,1.08
2022-09-21T03:01:42.229Z,1.30
2022-09-21T03:04:17.139Z,1.10
2022-09-21T03:06:49.900Z,1.20
2022-09-21T03:09:24.307Z,1.05
2022-09-21T03:11:57.005Z,1.23
2022-09-21T03:14:29.661Z,1.05
2022-09-21T03:17:02.397Z,1.48
2022-09-21T03:19:36.477Z,1.05
2022-09-21T03:22:09.236Z,1.08
2022-09-21T03:24:47.950Z,1.40
2022-09-21T03:27:22.986Z,1.02
2022-09-21T03:29:58.866Z,1.67
2022-09-21T03:32:34.678Z,1.20
2022-09-21T03:35:09.755Z,1.05
2022-09-21T03:37:42.479Z,0.90
2022-09-21T03:40:16.490Z,1.25
2022-09-21T03:42:49.248Z,0.98
2022-09-21T03:45:22.871Z,1.10
2022-09-21T03:47:57.273Z,1.10
2022-09-21T03:50:31.349Z,0.70
2022-09-21T03:53:04.474Z,1.08
2022-09-21T03:58:10.031Z,0.95
2022-09-21T04:03:16.576Z,1.20
2022-09-21T04:05:50.615Z,0.80
2022-09-21T04:08:23.609Z,0.90
2022-09-21T04:10:56.349Z,1.42
2022-09-21T04:13:29.213Z,1.10
2022-09-21T04:16:02.189Z,0.82
2022-09-21T04:18:34.886Z,1.05
2022-09-21T04:21:09.245Z,1.00
2022-09-21T04:23:41.888Z,1.08
2022-09-21T04:26:25.779Z,0.80
2022-09-21T04:28:58.675Z,1.00
2022-09-21T04:31:31.667Z,1.10
2022-09-21T04:36:38.194Z,0.80
2022-09-21T04:39:10.847Z,1.30
2022-09-21T04:41:43.740Z,1.20
2022-09-21T04:44:18.670Z,1.00
2022-09-21T04:46:51.374Z,0.90
2022-09-21T04:49:24.560Z,0.98
2022-09-21T04:51:58.528Z,1.00
2022-09-21T04:54:31.291Z,0.90
2022-09-21T04:57:04.048Z,1.30
2022-09-21T04:59:36.741Z,1.10
2022-09-21T05:02:09.485Z,0.90
2022-09-21T05:04:42.536Z,1.15
2022-09-21T05:07:16.618Z,0.90
2022-09-21T05:10:04.953Z,1.15
2022-09-21T05:12:41.019Z,0.80
2022-09-21T05:15:14.070Z,0.77
2022-09-21T05:17:46.751Z,0.82
2022-09-21T05:20:19.390Z,1.00
2022-09-21T05:22:53.366Z,1.15
2022-09-21T05:25:26.044Z,1.30
2022-09-21T05:27:58.765Z,1.20
2022-09-21T05:30:32.087Z,1.08
2022-09-21T05:33:05.687Z,1.45
2022-09-21T05:35:46.392Z,0.80
2022-09-21T05:38:21.318Z,1.20
2022-09-21T05:40:54.524Z,1.30
2022-09-21T05:43:27.704Z,1.05
2022-09-21T05:46:06.111Z,1.00
2022-09-21T05:48:43.953Z,1.10
2022-09-21T05:51:28.130Z,1.27
2022-09-21T05:54:10.149Z,1.10
2022-09-21T05:56:52.581Z,1.05
2022-09-21T05:59:45.128Z,1.03
2022-09-21T06:02:29.438Z,1.05
2022-09-21T06:05:03.500Z,1.00
2022-09-21T06:07:36.153Z,0.98
2022-09-21T06:10:12.842Z,1.00
2022-09-21T06:12:45.503Z,0.90
2022-09-21T06:15:18.221Z,0.88
2022-09-21T06:17:50.801Z,1.13
2022-09-21T06:20:25.062Z,1.33
2022-09-21T06:23:01.788Z,1.38
2022-09-21T06:25:35.987Z,1.05
2022-09-21T06:28:10.826Z,1.27
2022-09-21T06:30:44.948Z,1.35
2022-09-21T06:33:21.047Z,1.10
2022-09-21T06:35:55.203Z,1.00
2022-09-21T06:38:29.118Z,1.00
2022-09-21T06:41:04.764Z,1.23
2022-09-21T06:43:37.543Z,1.25
2022-09-21T06:46:10.265Z,1.17
2022-09-21T06:48:43.451Z,1.30
2022-09-21T06:54:24.569Z,1.55
2022-09-21T06:57:00.178Z,1.23
2022-09-21T06:59:33.376Z,1.20
2022-09-21T07:02:09.354Z,1.00
2022-09-21T07:04:42.304Z,1.25
2022-09-21T07:07:15.266Z,1.10
2022-09-21T07:10:05.545Z,1.20
2022-09-21T07:12:41.312Z,1.52
2022-09-21T07:15:15.442Z,1.73
2022-09-21T07:17:52.345Z,1.70
2022-09-21T07:20:25.390Z,1.27
2022-09-21T07:22:58.276Z,0.95
2022-09-21T07:25:31.420Z,1.60
2022-09-21T07:30:39.060Z,1.17
2022-09-21T07:33:12.379Z,1.15
2022-09-21T07:35:52.464Z,1.02
2022-09-21T07:38:25.273Z,1.25
2022-09-21T07:40:58.030Z,1.23
2022-09-21T07:43:32.055Z,1.42
2022-09-21T07:46:04.802Z,1.08
2022-09-21T07:48:38.039Z,1.50
2022-09-21T07:51:13.241Z,2.42
2022-09-21T07:53:46.109Z,1.40
2022-09-21T07:56:20.044Z,1.40
2022-09-21T07:59:08.463Z,1.30
2022-09-21T08:01:43.269Z,1.65
2022-09-21T08:04:16.109Z,1.40
2022-09-21T08:06:49.457Z,1.70
2022-09-21T08:09:22.217Z,1.55
2022-09-21T08:11:56.672Z,1.17
2022-09-21T08:14:31.931Z,1.40
2022-09-21T08:17:05.007Z,1.40
2022-09-21T08:22:12.167Z,2.42
2022-09-21T08:24:46.091Z,1.73
2022-09-21T08:27:19.771Z,1.90
2022-09-21T08:29:54.080Z,1.40
2022-09-21T08:32:49.323Z,2.20
2022-09-21T08:35:20.084Z,1.77
2022-09-21T08:37:54.747Z,2.03
2022-09-21T08:40:27.735Z,2.45
2022-09-21T08:43:03.689Z,1.80
2022-09-21T08:45:43.438Z,1.83
2022-09-21T08:48:25.294Z,2.20
2022-09-21T08:51:06.100Z,2.10
2022-09-21T08:53:43.122Z,2.55
2022-09-21T08:56:17.240Z,2.17
2022-09-21T08:58:50.168Z,2.40
2022-09-21T09:01:35.584Z,1.83
2022-09-21T09:04:27.907Z,1.50
2022-09-21T09:07:15.364Z,2.20
2022-09-21T09:10:04.584Z,2.58
2022-09-21T09:12:51.350Z,2.90
2022-09-21T09:15:38.615Z,2.88
2022-09-21T09:18:19.783Z,2.13
2022-09-21T09:20:59.372Z,1.83
2022-09-21T09:23:36.089Z,2.75
2022-09-21T09:26:17.793Z,2.08
2022-09-21T09:28:55.582Z,1.98
2022-09-21T09:31:32.658Z,2.38
2022-09-21T09:34:14.804Z,1.88
2022-09-21T09:36:58.751Z,1.65
2022-09-21T09:39:32.595Z,1.90
2022-09-21T09:42:25.696Z,2.17
2022-09-21T09:45:18.648Z,1.70
2022-09-21T09:48:08.320Z,1.50
2022-09-21T09:50:43.843Z,1.55
2022-09-21T09:53:21.970Z,1.52
2022-09-21T09:55:57.419Z,1.83
2022-09-21T09:58:40.440Z,1.48
2022-09-21T10:01:38.248Z,2.63
2022-09-21T10:04:13.662Z,1.80
2022-09-21T10:06:47.995Z,1.38
2022-09-21T10:09:25.747Z,2.13
2022-09-21T10:12:04.734Z,1.27
2022-09-21T10:14:39.887Z,1.45
2022-09-21T10:17:18.656Z,1.92
2022-09-21T10:20:00.961Z,1.50
2022-09-21T10:22:35.715Z,1.25
2022-09-21T10:25:18.612Z,1.65
2022-09-21T10:27:53.028Z,1.58
2022-09-21T10:30:38.767Z,1.20
2022-09-21T10:33:21.093Z,1.35
2022-09-21T10:35:54.561Z,1.48
2022-09-21T10:38:28.861Z,1.60
2022-09-21T10:41:02.156Z,2.20
2022-09-21T10:43:43.527Z,1.05
2022-09-21T10:46:16.878Z,1.23
2022-09-21T10:48:49.686Z,1.40
2022-09-21T10:51:29.504Z,1.13
2022-09-21T10:54:11.340Z,1.17
2022-09-21T10:56:53.269Z,1.05
2022-09-21T10:59:30.258Z,2.28
2022-09-21T11:02:23.878Z,1.48
2022-09-21T11:05:02.024Z,1.30
2022-09-21T11:07:42.284Z,1.52
2022-09-21T11:10:22.142Z,1.25
2022-09-21T11:13:06.604Z,1.38
2022-09-21T11:15:46.869Z,1.20
2022-09-21T11:18:26.878Z,1.58
2022-09-21T11:21:04.271Z,1.10
2022-09-21T11:23:55.186Z,1.17
2022-09-21T11:26:36.501Z,0.88
2022-09-21T11:29:13.379Z,1.23
2022-09-21T11:32:05.838Z,1.20
2022-09-21T11:35:02.671Z,1.52
2022-09-21T11:37:51.263Z,1.20
2022-09-21T11:41:03.202Z,1.15
2022-09-21T11:44:02.831Z,1.10
2022-09-21T11:46:43.780Z,1.20
2022-09-21T11:49:35.749Z,1.30
2022-09-21T11:52:25.293Z,1.45
2022-09-21T11:55:21.952Z,1.17
2022-09-21T11:58:02.277Z,1.10
2022-09-21T12:00:48.258Z,1.33
2022-09-21T12:03:45.931Z,0.85
2022-09-21T12:06:42.964Z,0.90
2022-09-21T12:09:32.872Z,0.93
2022-09-21T12:12:12.460Z,1.00
2022-09-21T12:14:55.260Z,1.10
2022-09-21T12:17:41.448Z,1.02
2022-09-21T12:20:23.184Z,1.10
2022-09-21T12:23:00.990Z,0.80
2022-09-21T12:25:37.561Z,0.90
2022-09-21T12:28:18.460Z,0.70
2022-09-21T12:31:00.417Z,1.00
2022-09-21T12:33:40.422Z,0.80
2022-09-21T12:36:17.951Z,0.80
2022-09-21T12:38:59.351Z,0.80
2022-09-21T12:41:40.841Z,1.00
2022-09-21T12:44:21.161Z,0.93
2022-09-21T12:47:09.281Z,0.73
2022-09-21T12:49:49.565Z,1.00
2022-09-21T12:52:25.156Z,0.85
2022-09-21T12:55:05.832Z,0.80
2022-09-21T12:58:14.141Z,0.90
2022-09-21T13:00:58.356Z,0.70
2022-09-21T13:03:37.232Z,0.68
2022-09-21T13:06:46.238Z,0.93
2022-09-21T13:09:21.746Z,0.85
2022-09-21T13:11:57.859Z,0.80
2022-09-21T13:14:36.345Z,0.98
2022-09-21T13:17:22.782Z,0.60
2022-09-21T13:19:59.755Z,0.70
2022-09-21T13:22:36.735Z,0.70
2022-09-21T13:25:21.507Z,1.10
2022-09-21T13:28:19.818Z,0.80
2022-09-21T13:31:39.823Z,0.75
2022-09-21T13:34:27.445Z,0.90
2022-09-21T13:37:34.667Z,0.90
2022-09-21T13:40:50.179Z,0.88
2022-09-21T13:43:46.431Z,0.82
2022-09-21T13:46:49.241Z,0.90
2022-09-21T13:49:33.670Z,1.40
2022-09-21T13:52:09.363Z,0.82
2022-09-21T13:54:53.111Z,1.52
2022-09-21T13:57:32.777Z,1.08
2022-09-21T14:00:30.838Z,0.85
2022-09-21T14:03:07.336Z,0.82
2022-09-21T14:05:43.213Z,0.80
2022-09-21T14:08:23.887Z,0.80
2022-09-21T14:11:02.527Z,0.90
2022-09-21T14:13:37.934Z,0.70
2022-09-21T14:16:45.802Z,1.17
2022-09-21T14:20:05.038Z,1.20
2022-09-21T14:22:40.563Z,0.75
2022-09-21T14:25:33.270Z,0.75
2022-09-21T14:28:14.174Z,0.63
2022-09-21T14:30:55.311Z,0.90
2022-09-21T14:33:35.799Z,0.77
2022-09-21T14:36:11.020Z,0.85
2022-09-21T14:38:53.520Z,0.95
2022-09-21T14:41:34.512Z,0.77
2022-09-21T14:44:18.754Z,0.70
2022-09-21T14:47:08.361Z,0.60
2022-09-21T14:50:18.434Z,1.00
2022-09-21T14:53:13.029Z,0.70
2022-09-21T14:58:51.921Z,1.15
2022-09-21T15:01:41.313Z,0.90
2022-09-21T15:04:45.827Z,1.05
2022-09-21T15:07:51.811Z,0.90
2022-09-21T15:10:53.037Z,0.85
2022-09-21T15:13:53.632Z,1.10
2022-09-21T15:16:37.985Z,0.63
2022-09-21T15:19:23.982Z,0.70
2022-09-21T15:22:10.430Z,0.82
2022-09-21T15:24:50.907Z,0.93
2022-09-21T15:27:27.086Z,0.80
2022-09-21T15:30:02.059Z,0.60
2022-09-21T15:32:38.319Z,0.85
2022-09-21T15:35:27.017Z,1.08
2022-09-21T15:38:01.514Z,0.73
2022-09-21T15:40:36.507Z,1.20
2022-09-21T15:43:21.255Z,0.70
2022-09-21T15:45:58.104Z,0.90
2022-09-21T15:48:34.178Z,0.80
2022-09-21T15:51:15.350Z,1.70
2022-09-21T15:53:53.425Z,1.00
2022-09-21T15:56:28.720Z,0.80
2022-09-21T15:59:08.646Z,1.10
2022-09-21T16:01:45.324Z,0.90
2022-09-21T16:04:21.930Z,0.85
2022-09-21T16:07:04.780Z,0.70
2022-09-21T16:09:42.544Z,1.15
2022-09-21T16:12:39.609Z,0.70
2022-09-21T16:15:23.152Z,0.60
2022-09-21T16:18:01.369Z,0.70
2022-09-21T16:20:43.895Z,0.70
2022-09-21T16:23:21.519Z,1.10
2022-09-21T16:25:57.060Z,0.80
2022-09-21T16:28:36.692Z,0.73
2022-09-21T16:31:29.973Z,0.63
2022-09-21T16:36:43.898Z,0.95
2022-09-21T16:39:19.576Z,0.80
2022-09-21T16:41:56.203Z,0.80
2022-09-21T16:44:31.490Z,0.75
2022-09-21T16:47:04.957Z,0.95
2022-09-21T16:49:37.778Z,0.73
2022-09-21T16:52:10.587Z,1.50
2022-09-21T16:54:45.426Z,0.70
2022-09-21T16:57:18.798Z,0.70
2022-09-21T16:59:51.738Z,0.70
2022-09-21T17:02:24.919Z,1.02
2022-09-21T17:04:57.822Z,1.17
2022-09-21T17:07:30.616Z,0.50
2022-09-21T17:10:13.970Z,0.80
2022-09-21T17:12:47.838Z,0.80
2022-09-21T17:15:24.070Z,0.90
2022-09-21T17:17:58.214Z,0.80
2022-09-21T17:20:37.944Z,1.15
2022-09-21T17:23:11.538Z,1.10
2022-09-21T17:25:45.665Z,1.20
2022-09-21T17:28:23.549Z,1.40
2022-09-21T17:30:56.631Z,1.05
2022-09-21T17:33:29.843Z,1.20
2022-09-21T17:36:06.249Z,1.40
2022-09-21T17:38:38.977Z,1.77
2022-09-21T17:41:25.857Z,2.40
2022-09-21T17:44:06.710Z,3.42
2022-09-21T17:46:45.806Z,3.35
2022-09-21T17:49:19.053Z,1.38
2022-09-21T17:52:09.504Z,1.83
2022-09-21T17:54:42.543Z,1.42
2022-09-21T18:00:02.953Z,1.48
2022-09-21T18:02:38.394Z,1.60
2022-09-21T18:07:50.216Z,2.45
2022-09-21T18:10:25.000Z,1.42
2022-09-21T18:13:24.104Z,1.50
2022-09-21T18:16:13.805Z,1.27
2022-09-21T18:18:54.880Z,1.45
2022-09-21T18:21:28.129Z,1.92
2022-09-21T18:24:20.153Z,1.48
2022-09-21T18:26:53.911Z,1.20
2022-09-21T18:29:40.858Z,1.65
2022-09-21T18:32:47.083Z,2.22
2022-09-21T18:35:31.154Z,1.50
2022-09-21T18:38:18.473Z,1.70
2022-09-21T18:41:12.510Z,1.52
2022-09-21T18:44:09.814Z,1.67
2022-09-21T18:46:57.651Z,1.50
2022-09-21T18:49:47.307Z,1.13
2022-09-21T18:52:29.288Z,1.40
2022-09-21T18:55:02.424Z,1.17
2022-09-21T18:57:35.834Z,1.10
2022-09-21T19:00:13.512Z,1.08
2022-09-21T19:03:05.442Z,1.25
2022-09-21T19:05:46.877Z,1.42
2022-09-21T19:08:30.748Z,1.65
2022-09-21T19:11:09.498Z,1.30
2022-09-21T19:13:50.156Z,1.20
2022-09-21T19:16:32.678Z,1.40
2022-09-21T19:19:19.812Z,1.88
2022-09-21T19:21:59.905Z,1.05
2022-09-21T19:24:39.468Z,1.30
2022-09-21T19:27:23.174Z,1.33
2022-09-21T19:30:03.727Z,1.08
2022-09-21T19:32:40.998Z,1.77
2022-09-21T19:35:20.674Z,1.30
2022-09-21T19:37:55.221Z,1.00
2022-09-21T19:40:29.933Z,1.48
2022-09-21T19:43:13.906Z,1.42
2022-09-21T19:46:01.344Z,1.02
2022-09-21T19:48:42.708Z,1.38
2022-09-21T19:51:20.551Z,1.17
2022-09-21T19:54:14.623Z,1.08
2022-09-21T19:57:07.261Z,1.63
2022-09-21T19:59:46.188Z,1.50
2022-09-21T20:02:27.109Z,0.93
2022-09-21T20:05:07.486Z,1.50
2022-09-21T20:07:49.951Z,1.05
2022-09-21T20:10:52.671Z,1.30
2022-09-21T20:13:36.719Z,1.45
2022-09-21T20:16:31.172Z,1.23
2022-09-21T20:19:14.393Z,1.25
2022-09-21T20:24:25.068Z,1.17
2022-09-21T20:26:58.440Z,1.95
2022-09-21T20:29:31.181Z,1.83
2022-09-21T20:32:03.901Z,1.55
2022-09-21T20:34:41.138Z,1.52
2022-09-21T20:37:14.244Z,1.48
2022-09-21T20:42:23.411Z,1.50
2022-09-21T20:44:56.209Z,1.60
2022-09-21T20:47:28.954Z,1.40
2022-09-21T20:50:03.416Z,1.30
2022-09-21T20:52:36.222Z,2.05
2022-09-21T20:55:13.843Z,1.52
2022-09-21T20:57:46.986Z,1.45
2022-09-21T21:00:20.279Z,1.30
2022-09-21T21:02:53.281Z,1.35
2022-09-21T21:08:01.746Z,1.33
2022-09-21T21:13:08.920Z,1.35
2022-09-21T21:15:41.699Z,1.38
2022-09-21T21:18:14.727Z,1.55
2022-09-21T21:23:20.344Z,1.50
2022-09-21T21:25:54.829Z,1.45
2022-09-21T21:28:29.255Z,1.60
2022-09-21T21:31:01.971Z,1.75
2022-09-21T21:33:34.733Z,1.60
2022-09-21T21:36:09.273Z,1.90
2022-09-21T21:38:43.269Z,1.85
2022-09-21T21:41:17.546Z,1.65
2022-09-21T21:43:50.282Z,1.58
2022-09-21T21:46:23.214Z,1.60
2022-09-21T21:48:56.110Z,1.60
2022-09-21T21:51:28.861Z,1.73
2022-09-21T21:54:01.676Z,1.52
2022-09-21T21:56:35.983Z,1.45
2022-09-21T21:59:08.998Z,1.45
2022-09-21T22:04:14.860Z,1.70
2022-09-21T22:09:22.098Z,1.77
2022-09-21T22:11:56.465Z,1.40
2022-09-21T22:14:29.270Z,1.75
2022-09-21T22:17:01.957Z,1.80
2022-09-21T22:19:47.587Z,1.80
2022-09-21T22:22:49.897Z,1.60
2022-09-21T22:25:22.536Z,1.63
2022-09-21T22:27:56.874Z,1.73
2022-09-21T22:30:29.547Z,1.92
2022-09-21T22:33:02.322Z,1.77
2022-09-21T22:35:35.027Z,1.45
2022-09-21T22:38:11.865Z,1.75
2022-09-21T22:40:45.701Z,1.65
2022-09-21T22:43:19.890Z,1.67
2022-09-21T22:45:54.688Z,1.55
2022-09-21T22:48:28.438Z,1.90
2022-09-21T22:51:01.160Z,1.60
2022-09-21T22:53:33.885Z,1.85
2022-09-21T22:56:08.931Z,1.90
2022-09-21T22:58:45.642Z,1.50
2022-09-21T23:01:20.480Z,1.52
2022-09-21T23:03:55.322Z,2.00
2022-09-21T23:06:32.508Z,1.35
2022-09-21T23:09:09.844Z,1.50
2022-09-21T23:11:47.122Z,1.70
2022-09-21T23:14:22.807Z,1.45
2022-09-21T23:16:55.538Z,1.70
2022-09-21T23:19:28.432Z,1.90
2022-09-21T23:22:01.158Z,1.98
2022-09-21T23:24:34.081Z,1.40
2022-09-21T23:27:06.799Z,1.20
2022-09-21T23:29:40.920Z,1.23
2022-09-21T23:32:13.655Z,1.33
2022-09-21T23:34:46.719Z,1.48
2022-09-21T23:39:52.307Z,1.47
2022-09-21T23:42:24.944Z,1.40
2022-09-21T23:44:59.271Z,1.70
2022-09-21T23:47:31.976Z,1.42
2022-09-21T23:50:05.278Z,1.50
2022-09-21T23:52:37.915Z,1.52
2022-09-21T23:55:10.697Z,1.05
2022-09-21T23:57:43.681Z,1.40
